Valley of Fire, Nevada
Current Conditions -  °F | °C
As of 3:58 PM on Monday 20 Oct 2014 (Local Time) from KLSV Reporting Station
Clear Clear  
Wind Chill: 87°   Ceiling: Unl
Heat Index: 87°   Visibility: 10mi
Dew Point: 44°   Wind: 8mph
Humidity: 22%   Direction: 100°E
Pressure: 29.82"   Gusts: NA
Location:  36.5809°N, 114.605°W
Report Text: KLSV 202258Z AUTO 10007KT 10SM CLR 30/07 A2982 RMK AO2 SLP080 T03040067 $
Loading
Personal Weather Stations






























Interactive Weather Map
Tropical Storm Tracking
New forecast layout! Learn more

10-Day Weather Forecast

Advertisements
Track Severe Weather on mobile